sensor_id;sensor_type;location;lat;lon;timestamp;pressure;altitude;pressure_sealevel;temperature;humidity
71772;BME280;59606;52.138;5.424;2022-10-16T00:00:53;101072.03;;;12.17;88.18
71772;BME280;59606;52.138;5.424;2022-10-16T00:03:19;101070.25;;;12.18;88.25
71772;BME280;59606;52.138;5.424;2022-10-16T00:05:46;101077.97;;;12.19;88.34
71772;BME280;59606;52.138;5.424;2022-10-16T00:08:13;101062.31;;;12.19;87.95
71772;BME280;59606;52.138;5.424;2022-10-16T00:10:40;101068.47;;;12.18;87.80
71772;BME280;59606;52.138;5.424;2022-10-16T00:13:07;101065.84;;;12.18;87.76
71772;BME280;59606;52.138;5.424;2022-10-16T00:15:35;101072.03;;;12.17;87.83
71772;BME280;59606;52.138;5.424;2022-10-16T00:18:06;101072.94;;;12.16;87.89
71772;BME280;59606;52.138;5.424;2022-10-16T00:20:36;101071.31;;;12.14;88.16
71772;BME280;59606;52.138;5.424;2022-10-16T00:23:03;101066.97;;;12.14;88.13
71772;BME280;59606;52.138;5.424;2022-10-16T00:25:31;101085.25;;;12.14;88.26
71772;BME280;59606;52.138;5.424;2022-10-16T00:28:00;101083.56;;;12.13;88.25
71772;BME280;59606;52.138;5.424;2022-10-16T00:30:26;101083.47;;;12.15;88.37
71772;BME280;59606;52.138;5.424;2022-10-16T00:32:54;101084.31;;;12.15;88.08
71772;BME280;59606;52.138;5.424;2022-10-16T00:35:21;101080.75;;;12.16;88.50
71772;BME280;59606;52.138;5.424;2022-10-16T00:37:47;101070.31;;;12.16;88.46
71772;BME280;59606;52.138;5.424;2022-10-16T00:40:14;101078.09;;;12.18;88.50
71772;BME280;59606;52.138;5.424;2022-10-16T00:42:40;101077.25;;;12.17;88.33
71772;BME280;59606;52.138;5.424;2022-10-16T00:45:08;101070.13;;;12.19;88.47
71772;BME280;59606;52.138;5.424;2022-10-16T00:47:43;101067.47;;;12.21;88.51
71772;BME280;59606;52.138;5.424;2022-10-16T00:50:22;101066.53;;;12.22;88.50
71772;BME280;59606;52.138;5.424;2022-10-16T00:52:51;101076.88;;;12.23;88.35
71772;BME280;59606;52.138;5.424;2022-10-16T00:55:18;101081.19;;;12.24;88.68
71772;BME280;59606;52.138;5.424;2022-10-16T00:57:46;101077.47;;;12.29;88.72
71772;BME280;59606;52.138;5.424;2022-10-16T01:00:17;101074.75;;;12.30;88.59
71772;BME280;59606;52.138;5.424;2022-10-16T01:02:44;101086.03;;;12.31;88.54
71772;BME280;59606;52.138;5.424;2022-10-16T01:05:11;101076.44;;;12.31;88.90
71772;BME280;59606;52.138;5.424;2022-10-16T01:07:57;101079.78;;;12.33;88.58
71772;BME280;59606;52.138;5.424;2022-10-16T01:10:38;101084.94;;;12.35;88.56
71772;BME280;59606;52.138;5.424;2022-10-16T01:13:12;101085.66;;;12.37;88.90
71772;BME280;59606;52.138;5.424;2022-10-16T01:15:45;101090.72;;;12.40;89.04
71772;BME280;59606;52.138;5.424;2022-10-16T01:18:34;101080.09;;;12.43;88.82
71772;BME280;59606;52.138;5.424;2022-10-16T01:21:40;101085.25;;;12.44;88.75
71772;BME280;59606;52.138;5.424;2022-10-16T01:26:40;101070.13;;;12.49;89.20
71772;BME280;59606;52.138;5.424;2022-10-16T01:29:33;101068.16;;;12.53;88.92
71772;BME280;59606;52.138;5.424;2022-10-16T01:32:40;101087.28;;;12.54;88.66
71772;BME280;59606;52.138;5.424;2022-10-16T01:35:18;101078.63;;;12.53;88.88
71772;BME280;59606;52.138;5.424;2022-10-16T01:38:10;101076.00;;;12.53;88.71
71772;BME280;59606;52.138;5.424;2022-10-16T01:40:41;101077.72;;;12.54;89.00
71772;BME280;59606;52.138;5.424;2022-10-16T01:43:23;101074.16;;;12.55;88.89
71772;BME280;59606;52.138;5.424;2022-10-16T01:45:52;101084.50;;;12.57;89.28
71772;BME280;59606;52.138;5.424;2022-10-16T01:48:20;101085.34;;;12.57;89.00
71772;BME280;59606;52.138;5.424;2022-10-16T01:50:54;101078.38;;;12.58;89.17
71772;BME280;59606;52.138;5.424;2022-10-16T01:53:22;101069.47;;;12.60;89.09
71772;BME280;59606;52.138;5.424;2022-10-16T01:55:50;101073.88;;;12.60;89.08
71772;BME280;59606;52.138;5.424;2022-10-16T01:58:18;101073.03;;;12.59;89.32
71772;BME280;59606;52.138;5.424;2022-10-16T02:00:46;101065.19;;;12.59;89.24
71772;BME280;59606;52.138;5.424;2022-10-16T02:03:16;101070.41;;;12.59;89.53
71772;BME280;59606;52.138;5.424;2022-10-16T02:05:51;101062.69;;;12.58;89.32
71772;BME280;59606;52.138;5.424;2022-10-16T02:08:20;101066.13;;;12.58;89.24
71772;BME280;59606;52.138;5.424;2022-10-16T02:10:49;101064.34;;;12.59;89.60
71772;BME280;59606;52.138;5.424;2022-10-16T02:13:26;101067.03;;;12.57;89.45
71772;BME280;59606;52.138;5.424;2022-10-16T02:15:54;101073.97;;;12.58;89.53
71772;BME280;59606;52.138;5.424;2022-10-16T02:18:21;101067.03;;;12.57;89.76
71772;BME280;59606;52.138;5.424;2022-10-16T02:20:57;101058.38;;;12.57;89.54
71772;BME280;59606;52.138;5.424;2022-10-16T02:23:35;101058.38;;;12.57;89.60
71772;BME280;59606;52.138;5.424;2022-10-16T02:26:07;101071.44;;;12.57;90.16
71772;BME280;59606;52.138;5.424;2022-10-16T02:28:42;101087.22;;;12.55;89.74
71772;BME280;59606;52.138;5.424;2022-10-16T02:31:12;101081.22;;;12.53;89.87
71772;BME280;59606;52.138;5.424;2022-10-16T02:33:43;101079.63;;;12.50;90.28
71772;BME280;59606;52.138;5.424;2022-10-16T02:36:10;101074.63;;;12.47;89.96
71772;BME280;59606;52.138;5.424;2022-10-16T02:38:38;101079.09;;;12.45;90.25
71772;BME280;59606;52.138;5.424;2022-10-16T02:41:05;101081.75;;;12.44;90.47
71772;BME280;59606;52.138;5.424;2022-10-16T02:43:32;101086.34;;;12.40;90.65
71772;BME280;59606;52.138;5.424;2022-10-16T02:46:00;101092.59;;;12.38;90.42
71772;BME280;59606;52.138;5.424;2022-10-16T02:48:26;101091.66;;;12.39;90.69
71772;BME280;59606;52.138;5.424;2022-10-16T02:50:53;101091.84;;;12.36;90.76
71772;BME280;59606;52.138;5.424;2022-10-16T02:53:19;101104.06;;;12.35;90.89
71772;BME280;59606;52.138;5.424;2022-10-16T02:55:45;101098.06;;;12.33;90.85
71772;BME280;59606;52.138;5.424;2022-10-16T02:58:12;101095.56;;;12.32;91.33
71772;BME280;59606;52.138;5.424;2022-10-16T03:00:38;101100.78;;;12.32;91.29
71772;BME280;59606;52.138;5.424;2022-10-16T03:03:05;101097.34;;;12.31;91.10
71772;BME280;59606;52.138;5.424;2022-10-16T03:05:32;101107.78;;;12.31;91.29
71772;BME280;59606;52.138;5.424;2022-10-16T03:07:58;101105.91;;;12.33;91.47
71772;BME280;59606;52.138;5.424;2022-10-16T03:10:27;101095.56;;;12.32;91.69
71772;BME280;59606;52.138;5.424;2022-10-16T03:12:53;101097.25;;;12.33;91.76
71772;BME280;59606;52.138;5.424;2022-10-16T03:15:20;101090.34;;;12.32;91.58
71772;BME280;59606;52.138;5.424;2022-10-16T03:17:46;101090.34;;;12.32;91.82
71772;BME280;59606;52.138;5.424;2022-10-16T03:20:13;101089.50;;;12.31;91.87
71772;BME280;59606;52.138;5.424;2022-10-16T03:22:39;101093.97;;;12.29;92.02
71772;BME280;59606;52.138;5.424;2022-10-16T03:25:06;101091.53;;;12.26;91.95
71772;BME280;59606;52.138;5.424;2022-10-16T03:27:33;101097.69;;;12.25;91.95
71772;BME280;59606;52.138;5.424;2022-10-16T03:29:59;101097.75;;;12.23;92.17
71772;BME280;59606;52.138;5.424;2022-10-16T03:32:26;101104.09;;;12.19;92.40
71772;BME280;59606;52.138;5.424;2022-10-16T03:34:54;101104.28;;;12.16;92.15
71772;BME280;59606;52.138;5.424;2022-10-16T03:37:23;101099.16;;;12.15;92.61
71772;BME280;59606;52.138;5.424;2022-10-16T03:39:50;101103.59;;;12.13;92.73
71772;BME280;59606;52.138;5.424;2022-10-16T03:42:16;101107.16;;;12.12;92.95
71772;BME280;59606;52.138;5.424;2022-10-16T03:44:43;101105.38;;;12.12;92.79
71772;BME280;59606;52.138;5.424;2022-10-16T03:47:09;101114.16;;;12.11;92.95
71772;BME280;59606;52.138;5.424;2022-10-16T03:49:36;101102.09;;;12.09;92.60
71772;BME280;59606;52.138;5.424;2022-10-16T03:52:02;101114.50;;;12.05;92.95
71772;BME280;59606;52.138;5.424;2022-10-16T03:54:29;101110.28;;;12.02;93.09
71772;BME280;59606;52.138;5.424;2022-10-16T03:56:55;101113.00;;;12.01;93.19
71772;BME280;59606;52.138;5.424;2022-10-16T03:59:21;101118.22;;;12.01;93.19
71772;BME280;59606;52.138;5.424;2022-10-16T04:01:48;101125.28;;;11.99;93.42
71772;BME280;59606;52.138;5.424;2022-10-16T04:04:14;101117.44;;;11.99;93.50
71772;BME280;59606;52.138;5.424;2022-10-16T04:06:41;101122.78;;;11.97;93.86
71772;BME280;59606;52.138;5.424;2022-10-16T04:09:07;101127.13;;;11.97;93.76
71772;BME280;59606;52.138;5.424;2022-10-16T04:11:34;101138.50;;;11.96;93.79
71772;BME280;59606;52.138;5.424;2022-10-16T04:14:00;101132.56;;;11.94;93.71
71772;BME280;59606;52.138;5.424;2022-10-16T04:16:26;101141.28;;;11.93;93.75
71772;BME280;59606;52.138;5.424;2022-10-16T04:18:53;101134.41;;;11.92;93.81
71772;BME280;59606;52.138;5.424;2022-10-16T04:21:19;101151.00;;;11.91;93.50
71772;BME280;59606;52.138;5.424;2022-10-16T04:23:46;101159.66;;;11.91;93.85
71772;BME280;59606;52.138;5.424;2022-10-16T04:26:12;101158.81;;;11.91;93.96
71772;BME280;59606;52.138;5.424;2022-10-16T04:28:39;101154.59;;;11.88;93.93
71772;BME280;59606;52.138;5.424;2022-10-16T04:31:06;101158.16;;;11.87;93.88
71772;BME280;59606;52.138;5.424;2022-10-16T04:33:33;101163.44;;;11.86;93.96
71772;BME280;59606;52.138;5.424;2022-10-16T04:36:01;101160.84;;;11.86;93.94
71772;BME280;59606;52.138;5.424;2022-10-16T04:38:28;101169.50;;;11.86;94.24
71772;BME280;59606;52.138;5.424;2022-10-16T04:40:54;101173.88;;;11.86;93.90
71772;BME280;59606;52.138;5.424;2022-10-16T04:43:21;101180.03;;;11.85;93.86
71772;BME280;59606;52.138;5.424;2022-10-16T04:45:48;101178.28;;;11.85;94.03
71772;BME280;59606;52.138;5.424;2022-10-16T04:48:17;101174.81;;;11.85;94.00
71772;BME280;59606;52.138;5.424;2022-10-16T04:50:44;101181.81;;;11.84;94.39
71772;BME280;59606;52.138;5.424;2022-10-16T04:53:10;101186.94;;;11.86;94.43
71772;BME280;59606;52.138;5.424;2022-10-16T04:55:37;101184.31;;;11.86;94.48
71772;BME280;59606;52.138;5.424;2022-10-16T04:58:04;101190.38;;;11.86;94.56
71772;BME280;59606;52.138;5.424;2022-10-16T05:00:31;101193.78;;;11.88;94.54
71772;BME280;59606;52.138;5.424;2022-10-16T05:02:57;101191.16;;;11.88;94.51
71772;BME280;59606;52.138;5.424;2022-10-16T05:05:26;101193.00;;;11.86;94.45
71772;BME280;59606;52.138;5.424;2022-10-16T05:07:53;101202.69;;;11.84;94.58
71772;BME280;59606;52.138;5.424;2022-10-16T05:10:20;101199.19;;;11.84;94.44
71772;BME280;59606;52.138;5.424;2022-10-16T05:12:46;101199.19;;;11.84;94.73
71772;BME280;59606;52.138;5.424;2022-10-16T05:15:13;101213.97;;;11.85;94.48
71772;BME280;59606;52.138;5.424;2022-10-16T05:17:39;101213.97;;;11.85;94.67
71772;BME280;59606;52.138;5.424;2022-10-16T05:20:10;101220.06;;;11.84;94.32
71772;BME280;59606;52.138;5.424;2022-10-16T05:22:37;101233.31;;;11.80;94.62
71772;BME280;59606;52.138;5.424;2022-10-16T05:25:04;101229.00;;;11.79;94.56
71772;BME280;59606;52.138;5.424;2022-10-16T05:27:31;101231.78;;;11.76;94.32
71772;BME280;59606;52.138;5.424;2022-10-16T05:29:57;101238.88;;;11.74;94.48
71772;BME280;59606;52.138;5.424;2022-10-16T05:32:23;101242.38;;;11.73;94.57
71772;BME280;59606;52.138;5.424;2022-10-16T05:34:50;101235.47;;;11.72;94.66
71772;BME280;59606;52.138;5.424;2022-10-16T05:37:17;101242.47;;;11.72;94.74
71772;BME280;59606;52.138;5.424;2022-10-16T05:39:43;101252.91;;;11.72;94.89
71772;BME280;59606;52.138;5.424;2022-10-16T05:42:09;101261.69;;;11.71;94.77
71772;BME280;59606;52.138;5.424;2022-10-16T05:44:36;101266.91;;;11.71;94.85
71772;BME280;59606;52.138;5.424;2022-10-16T05:47:02;101259.91;;;11.71;95.01
71772;BME280;59606;52.138;5.424;2022-10-16T05:49:29;101272.84;;;11.73;95.12
71772;BME280;59606;52.138;5.424;2022-10-16T05:51:56;101272.69;;;11.76;95.37
71772;BME280;59606;52.138;5.424;2022-10-16T05:54:22;101277.84;;;11.77;95.46
71772;BME280;59606;52.138;5.424;2022-10-16T05:56:49;101282.91;;;11.80;95.42
71772;BME280;59606;52.138;5.424;2022-10-16T05:59:15;101283.75;;;11.81;95.49
71772;BME280;59606;52.138;5.424;2022-10-16T06:01:42;101295.78;;;11.84;95.50
71772;BME280;59606;52.138;5.424;2022-10-16T06:04:09;101300.97;;;11.85;95.45
71772;BME280;59606;52.138;5.424;2022-10-16T06:06:36;101297.44;;;11.86;95.23
71772;BME280;59606;52.138;5.424;2022-10-16T06:09:03;101296.44;;;11.89;95.43
71772;BME280;59606;52.138;5.424;2022-10-16T06:11:31;101305.94;;;11.90;95.46
71772;BME280;59606;52.138;5.424;2022-10-16T06:14:00;101303.25;;;11.91;95.19
71772;BME280;59606;52.138;5.424;2022-10-16T06:16:29;101304.09;;;11.92;95.28
71772;BME280;59606;52.138;5.424;2022-10-16T06:18:56;101306.63;;;11.93;95.22
71772;BME280;59606;52.138;5.424;2022-10-16T06:21:24;101318.78;;;11.94;95.42
71772;BME280;59606;52.138;5.424;2022-10-16T06:23:51;101311.69;;;11.96;95.23
71772;BME280;59606;52.138;5.424;2022-10-16T06:26:21;101328.19;;;11.97;95.58
71772;BME280;59606;52.138;5.424;2022-10-16T06:28:48;101331.56;;;11.99;95.39
71772;BME280;59606;52.138;5.424;2022-10-16T06:31:15;101331.41;;;12.02;95.38
71772;BME280;59606;52.138;5.424;2022-10-16T06:33:42;101332.09;;;12.06;95.43
71772;BME280;59606;52.138;5.424;2022-10-16T06:36:13;101335.53;;;12.06;95.45
71772;BME280;59606;52.138;5.424;2022-10-16T06:38:41;101329.31;;;12.09;95.13
71772;BME280;59606;52.138;5.424;2022-10-16T06:41:13;101338.00;;;12.09;95.13
71772;BME280;59606;52.138;5.424;2022-10-16T06:43:40;101345.75;;;12.11;95.15
71772;BME280;59606;52.138;5.424;2022-10-16T06:46:09;101344.81;;;12.12;95.22
71772;BME280;59606;52.138;5.424;2022-10-16T06:48:36;101352.56;;;12.13;95.62
71772;BME280;59606;52.138;5.424;2022-10-16T06:51:05;101352.50;;;12.15;95.15
71772;BME280;59606;52.138;5.424;2022-10-16T06:53:35;101359.41;;;12.16;95.38
71772;BME280;59606;52.138;5.424;2022-10-16T06:56:11;101362.78;;;12.18;95.22
71772;BME280;59606;52.138;5.424;2022-10-16T06:58:38;101361.84;;;12.19;95.17
71772;BME280;59606;52.138;5.424;2022-10-16T07:01:05;101355.69;;;12.20;95.40
71772;BME280;59606;52.138;5.424;2022-10-16T07:03:32;101353.84;;;12.22;95.18
71772;BME280;59606;52.138;5.424;2022-10-16T07:06:03;101356.38;;;12.23;95.42
71772;BME280;59606;52.138;5.424;2022-10-16T07:08:31;101339.69;;;12.26;95.22
71772;BME280;59606;52.138;5.424;2022-10-16T07:11:00;101358.75;;;12.28;95.51
71772;BME280;59606;52.138;5.424;2022-10-16T07:13:27;101367.19;;;12.33;95.21
71772;BME280;59606;52.138;5.424;2022-10-16T07:15:53;101377.41;;;12.38;95.01
71772;BME280;59606;52.138;5.424;2022-10-16T07:18:20;101376.38;;;12.40;94.76
71772;BME280;59606;52.138;5.424;2022-10-16T07:20:46;101377.91;;;12.44;94.78
71772;BME280;59606;52.138;5.424;2022-10-16T07:23:13;101380.38;;;12.47;94.54
71772;BME280;59606;52.138;5.424;2022-10-16T07:25:39;101402.84;;;12.50;94.20
71772;BME280;59606;52.138;5.424;2022-10-16T07:28:06;101402.78;;;12.52;94.38
71772;BME280;59606;52.138;5.424;2022-10-16T07:30:34;101404.41;;;12.54;94.36
71772;BME280;59606;52.138;5.424;2022-10-16T07:33:02;101399.84;;;12.58;93.90
71772;BME280;59606;52.138;5.424;2022-10-16T07:35:29;101407.50;;;12.61;93.92
71772;BME280;59606;52.138;5.424;2022-10-16T07:37:55;101420.41;;;12.64;93.88
71772;BME280;59606;52.138;5.424;2022-10-16T07:40:21;101426.41;;;12.66;93.57
71772;BME280;59606;52.138;5.424;2022-10-16T07:42:48;101431.63;;;12.66;93.25
71772;BME280;59606;52.138;5.424;2022-10-16T07:45:14;101429.97;;;12.65;92.50
71772;BME280;59606;52.138;5.424;2022-10-16T07:47:41;101436.97;;;12.64;92.49
71772;BME280;59606;52.138;5.424;2022-10-16T07:50:08;101452.66;;;12.64;92.69
71772;BME280;59606;52.138;5.424;2022-10-16T07:52:34;101452.72;;;12.63;92.50
71772;BME280;59606;52.138;5.424;2022-10-16T07:55:01;101465.00;;;12.61;92.61
71772;BME280;59606;52.138;5.424;2022-10-16T07:57:28;101468.56;;;12.60;93.06
71772;BME280;59606;52.138;5.424;2022-10-16T07:59:54;101477.84;;;12.65;93.36
71772;BME280;59606;52.138;5.424;2022-10-16T08:02:21;101475.59;;;12.75;93.45
71772;BME280;59606;52.138;5.424;2022-10-16T08:04:47;101469.00;;;12.84;93.32
71772;BME280;59606;52.138;5.424;2022-10-16T08:07:14;101468.59;;;12.91;93.13
71772;BME280;59606;52.138;5.424;2022-10-16T08:09:40;101468.19;;;12.99;93.17
71772;BME280;59606;52.138;5.424;2022-10-16T08:12:07;101473.81;;;13.07;92.96
71772;BME280;59606;52.138;5.424;2022-10-16T08:14:33;101482.00;;;13.17;92.35
71772;BME280;59606;52.138;5.424;2022-10-16T08:17:00;101483.63;;;13.19;92.52
71772;BME280;59606;52.138;5.424;2022-10-16T08:19:28;101478.81;;;13.28;92.14
71772;BME280;59606;52.138;5.424;2022-10-16T08:21:55;101492.25;;;13.37;91.48
71772;BME280;59606;52.138;5.424;2022-10-16T08:24:21;101481.03;;;13.35;90.80
71772;BME280;59606;52.138;5.424;2022-10-16T08:26:48;101485.00;;;13.42;90.61
71772;BME280;59606;52.138;5.424;2022-10-16T08:29:15;101491.28;;;13.54;89.49
71772;BME280;59606;52.138;5.424;2022-10-16T08:31:41;101501.59;;;13.57;89.69
71772;BME280;59606;52.138;5.424;2022-10-16T08:34:07;101500.91;;;13.54;90.14
71772;BME280;59606;52.138;5.424;2022-10-16T08:36:34;101497.69;;;13.64;89.15
71772;BME280;59606;52.138;5.424;2022-10-16T08:39:00;101495.97;;;13.79;89.01
71772;BME280;59606;52.138;5.424;2022-10-16T08:41:37;101497.84;;;13.77;88.43
71772;BME280;59606;52.138;5.424;2022-10-16T08:44:26;101509.56;;;13.86;88.50
71772;BME280;59606;52.138;5.424;2022-10-16T08:50:09;101514.19;;;13.97;87.80
71772;BME280;59606;52.138;5.424;2022-10-16T08:52:35;101524.31;;;14.03;87.39
71772;BME280;59606;52.138;5.424;2022-10-16T08:55:05;101526.47;;;14.10;87.81
71772;BME280;59606;52.138;5.424;2022-10-16T08:57:32;101539.03;;;14.20;87.41
71772;BME280;59606;52.138;5.424;2022-10-16T09:00:08;101540.88;;;14.18;87.08
71772;BME280;59606;52.138;5.424;2022-10-16T09:05:32;101536.25;;;14.37;85.98
71772;BME280;59606;52.138;5.424;2022-10-16T09:16:36;101560.44;;;14.42;84.93
71772;BME280;59606;52.138;5.424;2022-10-16T09:19:28;101549.66;;;14.47;85.25
71772;BME280;59606;52.138;5.424;2022-10-16T09:22:00;101564.88;;;14.56;84.15
71772;BME280;59606;52.138;5.424;2022-10-16T09:24:29;101570.69;;;14.61;84.32
71772;BME280;59606;52.138;5.424;2022-10-16T09:26:56;101573.03;;;14.66;84.12
71772;BME280;59606;52.138;5.424;2022-10-16T09:29:22;101563.75;;;14.74;84.53
71772;BME280;59606;52.138;5.424;2022-10-16T09:31:53;101565.28;;;14.93;84.61
71772;BME280;59606;52.138;5.424;2022-10-16T09:34:32;101575.84;;;15.05;83.94
71772;BME280;59606;52.138;5.424;2022-10-16T09:37:04;101577.06;;;15.14;83.67
71772;BME280;59606;52.138;5.424;2022-10-16T09:39:47;101580.97;;;15.21;83.34
71772;BME280;59606;52.138;5.424;2022-10-16T09:42:18;101585.84;;;15.27;83.12
71772;BME280;59606;52.138;5.424;2022-10-16T09:44:48;101579.66;;;15.43;82.56
71772;BME280;59606;52.138;5.424;2022-10-16T09:47:18;101584.84;;;15.57;80.23
71772;BME280;59606;52.138;5.424;2022-10-16T09:50:03;101586.84;;;15.53;81.00
71772;BME280;59606;52.138;5.424;2022-10-16T09:52:33;101593.75;;;15.54;79.91
71772;BME280;59606;52.138;5.424;2022-10-16T09:55:09;101590.75;;;15.61;79.14
71772;BME280;59606;52.138;5.424;2022-10-16T09:57:59;101592.03;;;15.82;79.65
71772;BME280;59606;52.138;5.424;2022-10-16T10:00:25;101593.97;;;15.93;78.69
71772;BME280;59606;52.138;5.424;2022-10-16T10:02:53;101596.28;;;15.97;78.20
71772;BME280;59606;52.138;5.424;2022-10-16T10:05:29;101598.31;;;16.07;77.51
71772;BME280;59606;52.138;5.424;2022-10-16T10:08:01;101605.06;;;16.11;76.49
71772;BME280;59606;52.138;5.424;2022-10-16T10:10:36;101605.84;;;15.98;76.90
71772;BME280;59606;52.138;5.424;2022-10-16T10:13:03;101600.25;;;15.90;75.96
71772;BME280;59606;52.138;5.424;2022-10-16T10:15:34;101594.38;;;15.99;76.01
71772;BME280;59606;52.138;5.424;2022-10-16T10:18:02;101598.13;;;16.22;76.16
71772;BME280;59606;52.138;5.424;2022-10-16T10:20:42;101602.19;;;16.41;77.10
71772;BME280;59606;52.138;5.424;2022-10-16T10:23:23;101601.34;;;16.53;74.38
71772;BME280;59606;52.138;5.424;2022-10-16T10:33:59;101623.19;;;16.81;73.58
71772;BME280;59606;52.138;5.424;2022-10-16T10:36:41;101620.09;;;16.74;73.14
71772;BME280;59606;52.138;5.424;2022-10-16T10:39:15;101623.28;;;16.79;73.58
71772;BME280;59606;52.138;5.424;2022-10-16T10:42:06;101638.97;;;16.93;72.95
71772;BME280;59606;52.138;5.424;2022-10-16T10:45:00;101632.13;;;17.04;73.83
71772;BME280;59606;52.138;5.424;2022-10-16T10:47:47;101632.00;;;17.31;73.22
71772;BME280;59606;52.138;5.424;2022-10-16T10:50:33;101633.66;;;17.44;70.96
71772;BME280;59606;52.138;5.424;2022-10-16T10:56:04;101639.28;;;17.27;69.71
71772;BME280;59606;52.138;5.424;2022-10-16T11:02:00;101640.75;;;17.18;69.91
71772;BME280;59606;52.138;5.424;2022-10-16T11:07:49;101654.72;;;17.32;70.73
71772;BME280;59606;52.138;5.424;2022-10-16T11:10:24;101653.75;;;17.46;68.85
71772;BME280;59606;52.138;5.424;2022-10-16T11:12:59;101653.72;;;17.58;68.87
71772;BME280;59606;52.138;5.424;2022-10-16T11:15:33;101659.00;;;17.58;65.80
71772;BME280;59606;52.138;5.424;2022-10-16T11:18:15;101655.28;;;17.24;66.57
71772;BME280;59606;52.138;5.424;2022-10-16T11:20:54;101659.28;;;16.91;67.25
71772;BME280;59606;52.138;5.424;2022-10-16T11:23:27;101665.81;;;16.86;68.99
71772;BME280;59606;52.138;5.424;2022-10-16T11:25:59;101668.03;;;16.92;69.21
71772;BME280;59606;52.138;5.424;2022-10-16T11:28:32;101669.06;;;16.89;68.54
71772;BME280;59606;52.138;5.424;2022-10-16T11:34:09;101677.19;;;17.12;68.46
71772;BME280;59606;52.138;5.424;2022-10-16T11:36:49;101670.75;;;17.29;66.90
71772;BME280;59606;52.138;5.424;2022-10-16T11:39:24;101676.13;;;17.27;67.65
71772;BME280;59606;52.138;5.424;2022-10-16T11:42:13;101669.16;;;17.13;66.96
71772;BME280;59606;52.138;5.424;2022-10-16T11:45:00;101675.38;;;17.00;66.87
71772;BME280;59606;52.138;5.424;2022-10-16T11:47:45;101679.38;;;16.92;67.28
71772;BME280;59606;52.138;5.424;2022-10-16T11:50:49;101682.16;;;16.91;67.04
71772;BME280;59606;52.138;5.424;2022-10-16T11:55:49;101683.09;;;17.03;62.20
71772;BME280;59606;52.138;5.424;2022-10-16T11:58:35;101687.28;;;16.80;63.18
71772;BME280;59606;52.138;5.424;2022-10-16T12:04:11;101687.38;;;16.78;63.50
71772;BME280;59606;52.138;5.424;2022-10-16T12:09:25;101685.69;;;16.90;62.60
71772;BME280;59606;52.138;5.424;2022-10-16T12:11:53;101690.25;;;16.88;61.80
71772;BME280;59606;52.138;5.424;2022-10-16T12:14:37;101696.22;;;16.90;64.19
71772;BME280;59606;52.138;5.424;2022-10-16T12:17:27;101702.16;;;17.19;63.19
71772;BME280;59606;52.138;5.424;2022-10-16T12:20:25;101702.97;;;17.19;62.70
71772;BME280;59606;52.138;5.424;2022-10-16T12:22:53;101695.41;;;17.15;62.23
71772;BME280;59606;52.138;5.424;2022-10-16T12:25:33;101693.81;;;17.25;61.84
71772;BME280;59606;52.138;5.424;2022-10-16T12:28:02;101698.13;;;17.26;61.54
71772;BME280;59606;52.138;5.424;2022-10-16T12:30:33;101704.25;;;17.27;63.84
71772;BME280;59606;52.138;5.424;2022-10-16T12:33:04;101701.31;;;17.18;63.86
71772;BME280;59606;52.138;5.424;2022-10-16T12:35:43;101712.88;;;17.16;64.82
71772;BME280;59606;52.138;5.424;2022-10-16T12:38:15;101710.88;;;17.07;64.61
71772;BME280;59606;52.138;5.424;2022-10-16T12:40:44;101713.19;;;16.99;65.32
71772;BME280;59606;52.138;5.424;2022-10-16T12:43:23;101715.63;;;17.02;64.07
71772;BME280;59606;52.138;5.424;2022-10-16T12:46:45;101709.13;;;17.07;64.00
71772;BME280;59606;52.138;5.424;2022-10-16T12:48:52;101705.13;;;17.27;64.40
71772;BME280;59606;52.138;5.424;2022-10-16T12:51:36;101703.81;;;17.33;63.41
71772;BME280;59606;52.138;5.424;2022-10-16T12:56:56;101707.91;;;17.50;63.21
71772;BME280;59606;52.138;5.424;2022-10-16T13:00:06;101710.31;;;17.65;63.41
71772;BME280;59606;52.138;5.424;2022-10-16T13:16:59;101710.81;;;17.83;60.37
71772;BME280;59606;52.138;5.424;2022-10-16T13:19:59;101716.22;;;17.82;60.13
71772;BME280;59606;52.138;5.424;2022-10-16T13:22:39;101716.22;;;17.82;60.12
71772;BME280;59606;52.138;5.424;2022-10-16T13:28:01;101724.19;;;17.93;60.15
71772;BME280;59606;52.138;5.424;2022-10-16T13:30:30;101728.94;;;18.01;60.34
71772;BME280;59606;52.138;5.424;2022-10-16T13:33:46;101738.75;;;17.99;60.09
71772;BME280;59606;52.138;5.424;2022-10-16T13:35:54;101742.66;;;17.93;61.15
71772;BME280;59606;52.138;5.424;2022-10-16T13:43:21;101743.78;;;18.02;61.27
71772;BME280;59606;52.138;5.424;2022-10-16T13:45:56;101748.25;;;17.88;60.70
71772;BME280;59606;52.138;5.424;2022-10-16T13:48:23;101753.13;;;17.82;60.63
71772;BME280;59606;52.138;5.424;2022-10-16T13:51:04;101746.28;;;17.79;61.76
71772;BME280;59606;52.138;5.424;2022-10-16T13:53:33;101742.47;;;17.83;61.56
71772;BME280;59606;52.138;5.424;2022-10-16T13:56:02;101742.78;;;17.79;61.91
71772;BME280;59606;52.138;5.424;2022-10-16T13:58:29;101745.56;;;17.77;61.47
71772;BME280;59606;52.138;5.424;2022-10-16T14:01:01;101744.88;;;17.74;61.66
71772;BME280;59606;52.138;5.424;2022-10-16T14:03:29;101751.94;;;17.73;61.11
71772;BME280;59606;52.138;5.424;2022-10-16T14:06:01;101754.78;;;17.70;61.83
71772;BME280;59606;52.138;5.424;2022-10-16T14:08:29;101755.75;;;17.69;61.95
71772;BME280;59606;52.138;5.424;2022-10-16T14:10:59;101755.53;;;17.72;61.94
71772;BME280;59606;52.138;5.424;2022-10-16T14:13:31;101750.25;;;17.72;61.21
71772;BME280;59606;52.138;5.424;2022-10-16T14:16:05;101757.41;;;17.70;61.75
71772;BME280;59606;52.138;5.424;2022-10-16T14:18:33;101764.69;;;17.66;62.43
71772;BME280;59606;52.138;5.424;2022-10-16T14:21:11;101751.66;;;17.65;61.58